sensor_id;sensor_type;location;lat;lon;timestamp;temperature;humidity
75387;DHT22;63966;47.914;22.266;2022-12-07T00:00:44;0.76;96.20
75387;DHT22;63966;47.914;22.266;2022-12-07T00:03:49;0.70;96.20
75387;DHT22;63966;47.914;22.266;2022-12-07T00:06:53;0.74;96.50
75387;DHT22;63966;47.914;22.266;2022-12-07T00:09:56;0.80;96.47
75387;DHT22;63966;47.914;22.266;2022-12-07T00:13:00;0.76;96.37
75387;DHT22;63966;47.914;22.266;2022-12-07T00:19:10;0.64;96.41
75387;DHT22;63966;47.914;22.266;2022-12-07T00:22:14;0.64;96.45
75387;DHT22;63966;47.914;22.266;2022-12-07T00:25:17;0.66;96.35
75387;DHT22;63966;47.914;22.266;2022-12-07T00:28:20;0.69;96.35
75387;DHT22;63966;47.914;22.266;2022-12-07T00:31:26;0.67;96.25
75387;DHT22;63966;47.914;22.266;2022-12-07T00:34:30;0.64;96.16
75387;DHT22;63966;47.914;22.266;2022-12-07T00:37:34;0.60;96.19
75387;DHT22;63966;47.914;22.266;2022-12-07T00:40:37;0.59;96.51
75387;DHT22;63966;47.914;22.266;2022-12-07T00:43:42;0.59;96.38
75387;DHT22;63966;47.914;22.266;2022-12-07T00:46:46;0.59;96.50
75387;DHT22;63966;47.914;22.266;2022-12-07T00:49:49;0.66;96.33
75387;DHT22;63966;47.914;22.266;2022-12-07T00:52:52;0.76;96.22
75387;DHT22;63966;47.914;22.266;2022-12-07T00:55:56;0.71;96.19
75387;DHT22;63966;47.914;22.266;2022-12-07T00:59:02;0.77;96.10
75387;DHT22;63966;47.914;22.266;2022-12-07T01:02:06;0.80;96.05
75387;DHT22;63966;47.914;22.266;2022-12-07T01:05:09;0.74;95.98
75387;DHT22;63966;47.914;22.266;2022-12-07T01:08:13;0.80;95.94
75387;DHT22;63966;47.914;22.266;2022-12-07T01:11:20;0.87;95.62
75387;DHT22;63966;47.914;22.266;2022-12-07T01:14:23;0.78;95.46
75387;DHT22;63966;47.914;22.266;2022-12-07T01:17:27;0.74;95.42
75387;DHT22;63966;47.914;22.266;2022-12-07T01:20:31;0.66;95.51
75387;DHT22;63966;47.914;22.266;2022-12-07T01:23:36;0.61;95.66
75387;DHT22;63966;47.914;22.266;2022-12-07T01:26:40;0.66;95.65
75387;DHT22;63966;47.914;22.266;2022-12-07T01:29:44;0.60;95.67
75387;DHT22;63966;47.914;22.266;2022-12-07T01:32:47;0.54;95.87
75387;DHT22;63966;47.914;22.266;2022-12-07T01:35:51;0.52;95.84
75387;DHT22;63966;47.914;22.266;2022-12-07T01:38:58;0.48;95.85
75387;DHT22;63966;47.914;22.266;2022-12-07T01:42:02;0.42;95.85
75387;DHT22;63966;47.914;22.266;2022-12-07T01:48:39;0.25;95.98
75387;DHT22;63966;47.914;22.266;2022-12-07T01:51:44;0.22;96.03
75387;DHT22;63966;47.914;22.266;2022-12-07T01:54:52;0.16;96.24
75387;DHT22;63966;47.914;22.266;2022-12-07T01:57:56;0.18;96.27
75387;DHT22;63966;47.914;22.266;2022-12-07T02:01:00;0.16;96.19
75387;DHT22;63966;47.914;22.266;2022-12-07T02:04:03;0.13;96.08
75387;DHT22;63966;47.914;22.266;2022-12-07T02:07:07;0.03;96.21
75387;DHT22;63966;47.914;22.266;2022-12-07T02:10:21;0.05;96.21
75387;DHT22;63966;47.914;22.266;2022-12-07T02:13:28;-0.03;96.31
75387;DHT22;63966;47.914;22.266;2022-12-07T02:27:06;-0.05;96.20
75387;DHT22;63966;47.914;22.266;2022-12-07T02:30:20;-0.05;96.16
75387;DHT22;63966;47.914;22.266;2022-12-07T02:33:38;-0.13;96.20
75387;DHT22;63966;47.914;22.266;2022-12-07T02:36:50;-0.18;96.18
75387;DHT22;63966;47.914;22.266;2022-12-07T02:40:48;-0.25;96.25
75387;DHT22;63966;47.914;22.266;2022-12-07T02:43:34;-0.20;96.27
75387;DHT22;63966;47.914;22.266;2022-12-07T02:46:42;-0.19;96.27
75387;DHT22;63966;47.914;22.266;2022-12-07T02:49:46;-0.20;96.22
75387;DHT22;63966;47.914;22.266;2022-12-07T02:52:50;-0.18;96.18
75387;DHT22;63966;47.914;22.266;2022-12-07T02:55:54;-0.22;96.17
75387;DHT22;63966;47.914;22.266;2022-12-07T03:09:19;-0.18;96.16
75387;DHT22;63966;47.914;22.266;2022-12-07T03:12:35;-0.19;96.26
75387;DHT22;63966;47.914;22.266;2022-12-07T03:18:58;-0.18;96.17
75387;DHT22;63966;47.914;22.266;2022-12-07T03:22:11;-0.19;96.09
75387;DHT22;63966;47.914;22.266;2022-12-07T03:25:17;-0.22;95.99
75387;DHT22;63966;47.914;22.266;2022-12-07T03:28:23;-0.27;95.93
75387;DHT22;63966;47.914;22.266;2022-12-07T03:31:32;-0.27;95.91
75387;DHT22;63966;47.914;22.266;2022-12-07T03:35:04;-0.32;95.94
75387;DHT22;63966;47.914;22.266;2022-12-07T03:38:23;-0.26;96.02
75387;DHT22;63966;47.914;22.266;2022-12-07T03:41:31;-0.23;95.86
75387;DHT22;63966;47.914;22.266;2022-12-07T03:44:36;-0.13;95.70
75387;DHT22;63966;47.914;22.266;2022-12-07T03:48:32;-0.03;95.49
75387;DHT22;63966;47.914;22.266;2022-12-07T03:51:51;0.19;95.37
75387;DHT22;63966;47.914;22.266;2022-12-07T03:55:28;0.29;95.29
75387;DHT22;63966;47.914;22.266;2022-12-07T03:58:33;0.39;95.19
75387;DHT22;63966;47.914;22.266;2022-12-07T04:01:37;0.53;95.02
75387;DHT22;63966;47.914;22.266;2022-12-07T04:04:41;0.69;94.36
75387;DHT22;63966;47.914;22.266;2022-12-07T04:07:45;0.70;94.05
75387;DHT22;63966;47.914;22.266;2022-12-07T04:10:48;0.73;94.15
75387;DHT22;63966;47.914;22.266;2022-12-07T04:13:52;0.76;93.94
75387;DHT22;63966;47.914;22.266;2022-12-07T04:17:14;0.78;93.92
75387;DHT22;63966;47.914;22.266;2022-12-07T04:20:17;0.90;94.02
75387;DHT22;63966;47.914;22.266;2022-12-07T04:23:21;0.88;93.37
75387;DHT22;63966;47.914;22.266;2022-12-07T04:26:24;0.90;93.40
75387;DHT22;63966;47.914;22.266;2022-12-07T04:29:28;0.91;93.47
75387;DHT22;63966;47.914;22.266;2022-12-07T04:32:31;0.95;93.22
75387;DHT22;63966;47.914;22.266;2022-12-07T04:35:35;0.94;93.03
75387;DHT22;63966;47.914;22.266;2022-12-07T04:38:38;0.94;93.26
75387;DHT22;63966;47.914;22.266;2022-12-07T04:41:42;0.98;93.31
75387;DHT22;63966;47.914;22.266;2022-12-07T04:44:45;0.91;93.02
75387;DHT22;63966;47.914;22.266;2022-12-07T04:47:48;0.91;92.93
75387;DHT22;63966;47.914;22.266;2022-12-07T04:50:52;0.95;93.13
75387;DHT22;63966;47.914;22.266;2022-12-07T04:53:56;0.92;92.98
75387;DHT22;63966;47.914;22.266;2022-12-07T04:56:59;0.94;93.27
75387;DHT22;63966;47.914;22.266;2022-12-07T05:00:03;0.97;92.92
75387;DHT22;63966;47.914;22.266;2022-12-07T05:03:07;0.98;92.82
75387;DHT22;63966;47.914;22.266;2022-12-07T05:06:12;0.94;92.90
75387;DHT22;63966;47.914;22.266;2022-12-07T05:09:16;0.91;92.91
75387;DHT22;63966;47.914;22.266;2022-12-07T05:12:19;0.87;93.18
75387;DHT22;63966;47.914;22.266;2022-12-07T05:15:22;0.90;93.32
75387;DHT22;63966;47.914;22.266;2022-12-07T05:18:26;0.83;93.40
75387;DHT22;63966;47.914;22.266;2022-12-07T05:21:29;0.91;93.40
75387;DHT22;63966;47.914;22.266;2022-12-07T05:24:33;0.94;93.53
75387;DHT22;63966;47.914;22.266;2022-12-07T05:27:36;0.92;93.44
75387;DHT22;63966;47.914;22.266;2022-12-07T05:30:40;0.98;93.37
75387;DHT22;63966;47.914;22.266;2022-12-07T05:33:43;1.07;92.90
75387;DHT22;63966;47.914;22.266;2022-12-07T05:36:47;1.08;92.92
75387;DHT22;63966;47.914;22.266;2022-12-07T05:39:50;1.12;93.00
75387;DHT22;63966;47.914;22.266;2022-12-07T05:42:53;1.14;92.76
75387;DHT22;63966;47.914;22.266;2022-12-07T05:46:01;1.09;93.06
75387;DHT22;63966;47.914;22.266;2022-12-07T05:49:05;1.17;93.11
75387;DHT22;63966;47.914;22.266;2022-12-07T05:52:09;1.14;93.03
75387;DHT22;63966;47.914;22.266;2022-12-07T05:55:12;1.09;93.05
75387;DHT22;63966;47.914;22.266;2022-12-07T05:58:16;1.19;93.09
75387;DHT22;63966;47.914;22.266;2022-12-07T06:01:38;1.14;93.14
75387;DHT22;63966;47.914;22.266;2022-12-07T06:04:44;1.25;92.93
75387;DHT22;63966;47.914;22.266;2022-12-07T06:07:47;1.25;93.02
75387;DHT22;63966;47.914;22.266;2022-12-07T06:10:51;1.25;93.06
75387;DHT22;63966;47.914;22.266;2022-12-07T06:14:14;1.35;92.98
75387;DHT22;63966;47.914;22.266;2022-12-07T06:17:18;1.39;92.83
75387;DHT22;63966;47.914;22.266;2022-12-07T06:20:21;1.43;92.85
75387;DHT22;63966;47.914;22.266;2022-12-07T06:23:25;1.43;92.74
75387;DHT22;63966;47.914;22.266;2022-12-07T06:26:28;1.49;92.73
75387;DHT22;63966;47.914;22.266;2022-12-07T06:29:31;1.62;92.53
75387;DHT22;63966;47.914;22.266;2022-12-07T06:32:37;1.63;92.50
75387;DHT22;63966;47.914;22.266;2022-12-07T06:35:40;1.73;92.46
75387;DHT22;63966;47.914;22.266;2022-12-07T06:38:44;1.83;92.10
75387;DHT22;63966;47.914;22.266;2022-12-07T06:41:48;1.94;91.89
75387;DHT22;63966;47.914;22.266;2022-12-07T06:44:51;1.95;91.65
75387;DHT22;63966;47.914;22.266;2022-12-07T06:47:55;1.90;92.06
75387;DHT22;63966;47.914;22.266;2022-12-07T06:50:58;2.00;92.54
75387;DHT22;63966;47.914;22.266;2022-12-07T06:54:03;2.00;92.38
75387;DHT22;63966;47.914;22.266;2022-12-07T06:57:06;2.00;92.23
75387;DHT22;63966;47.914;22.266;2022-12-07T07:00:10;1.95;92.69
75387;DHT22;63966;47.914;22.266;2022-12-07T07:03:22;2.13;92.11
75387;DHT22;63966;47.914;22.266;2022-12-07T07:06:25;2.22;91.82
75387;DHT22;63966;47.914;22.266;2022-12-07T07:09:29;2.20;92.08
75387;DHT22;63966;47.914;22.266;2022-12-07T07:12:34;2.17;92.32
75387;DHT22;63966;47.914;22.266;2022-12-07T07:15:38;2.32;92.12
75387;DHT22;63966;47.914;22.266;2022-12-07T07:18:42;2.31;91.94
75387;DHT22;63966;47.914;22.266;2022-12-07T07:21:45;2.36;91.41
75387;DHT22;63966;47.914;22.266;2022-12-07T07:24:48;2.39;91.78
75387;DHT22;63966;47.914;22.266;2022-12-07T07:27:52;2.38;91.77
75387;DHT22;63966;47.914;22.266;2022-12-07T07:30:55;2.52;91.62
75387;DHT22;63966;47.914;22.266;2022-12-07T07:33:59;2.43;91.71
75387;DHT22;63966;47.914;22.266;2022-12-07T07:37:02;2.48;91.66
75387;DHT22;63966;47.914;22.266;2022-12-07T07:40:06;2.59;91.58
75387;DHT22;63966;47.914;22.266;2022-12-07T07:43:10;2.66;91.41
75387;DHT22;63966;47.914;22.266;2022-12-07T07:46:14;2.66;91.40
75387;DHT22;63966;47.914;22.266;2022-12-07T07:49:18;2.67;91.50
75387;DHT22;63966;47.914;22.266;2022-12-07T07:52:22;2.76;91.29
75387;DHT22;63966;47.914;22.266;2022-12-07T07:55:25;2.69;92.01
75387;DHT22;63966;47.914;22.266;2022-12-07T07:58:29;2.76;91.78
75387;DHT22;63966;47.914;22.266;2022-12-07T08:01:34;2.80;91.77
75387;DHT22;63966;47.914;22.266;2022-12-07T08:04:40;2.83;91.76
75387;DHT22;63966;47.914;22.266;2022-12-07T08:07:44;2.89;91.56
75387;DHT22;63966;47.914;22.266;2022-12-07T08:10:49;2.87;91.69
75387;DHT22;63966;47.914;22.266;2022-12-07T08:13:53;2.94;91.77
75387;DHT22;63966;47.914;22.266;2022-12-07T08:16:57;2.96;91.62
75387;DHT22;63966;47.914;22.266;2022-12-07T08:20:00;3.01;91.52
75387;DHT22;63966;47.914;22.266;2022-12-07T08:23:05;2.90;91.92
75387;DHT22;63966;47.914;22.266;2022-12-07T08:26:11;2.97;91.69
75387;DHT22;63966;47.914;22.266;2022-12-07T08:29:15;2.93;91.77
75387;DHT22;63966;47.914;22.266;2022-12-07T08:32:19;2.97;91.90
75387;DHT22;63966;47.914;22.266;2022-12-07T08:35:24;3.00;91.97
75387;DHT22;63966;47.914;22.266;2022-12-07T08:38:27;3.05;91.75
75387;DHT22;63966;47.914;22.266;2022-12-07T08:41:34;3.12;91.51
75387;DHT22;63966;47.914;22.266;2022-12-07T08:44:38;3.22;91.35
75387;DHT22;63966;47.914;22.266;2022-12-07T08:47:46;3.34;90.80
75387;DHT22;63966;47.914;22.266;2022-12-07T08:50:52;3.32;90.93
75387;DHT22;63966;47.914;22.266;2022-12-07T08:53:59;3.41;90.73
75387;DHT22;63966;47.914;22.266;2022-12-07T08:57:05;3.49;90.20
75387;DHT22;63966;47.914;22.266;2022-12-07T09:00:09;3.48;90.24
75387;DHT22;63966;47.914;22.266;2022-12-07T09:03:13;3.52;90.33
75387;DHT22;63966;47.914;22.266;2022-12-07T09:06:17;3.56;90.17
75387;DHT22;63966;47.914;22.266;2022-12-07T09:09:21;3.66;89.67
75387;DHT22;63966;47.914;22.266;2022-12-07T09:12:24;3.54;89.74
75387;DHT22;63966;47.914;22.266;2022-12-07T09:15:30;3.51;90.10
75387;DHT22;63966;47.914;22.266;2022-12-07T09:18:34;3.46;90.00
75387;DHT22;63966;47.914;22.266;2022-12-07T09:21:38;3.36;90.62
75387;DHT22;63966;47.914;22.266;2022-12-07T09:24:41;3.51;90.44
75387;DHT22;63966;47.914;22.266;2022-12-07T09:27:45;3.56;89.89
75387;DHT22;63966;47.914;22.266;2022-12-07T09:30:49;3.69;89.64
75387;DHT22;63966;47.914;22.266;2022-12-07T09:34:12;3.75;89.46
75387;DHT22;63966;47.914;22.266;2022-12-07T09:37:16;3.77;89.46
75387;DHT22;63966;47.914;22.266;2022-12-07T09:40:21;3.79;89.30
75387;DHT22;63966;47.914;22.266;2022-12-07T09:43:26;3.72;89.63
75387;DHT22;63966;47.914;22.266;2022-12-07T09:46:35;3.79;89.80
75387;DHT22;63966;47.914;22.266;2022-12-07T09:49:40;3.85;89.51
75387;DHT22;63966;47.914;22.266;2022-12-07T09:52:45;4.00;89.02
75387;DHT22;63966;47.914;22.266;2022-12-07T09:55:50;4.06;88.71
75387;DHT22;63966;47.914;22.266;2022-12-07T09:59:01;4.04;89.07
75387;DHT22;63966;47.914;22.266;2022-12-07T10:02:34;3.98;89.28
75387;DHT22;63966;47.914;22.266;2022-12-07T10:05:44;4.07;89.02
75387;DHT22;63966;47.914;22.266;2022-12-07T10:08:48;4.27;88.86
75387;DHT22;63966;47.914;22.266;2022-12-07T10:15:10;4.68;87.78
75387;DHT22;63966;47.914;22.266;2022-12-07T10:18:27;4.80;87.05
75387;DHT22;63966;47.914;22.266;2022-12-07T10:21:31;5.00;86.39
75387;DHT22;63966;47.914;22.266;2022-12-07T10:24:35;5.16;86.09
75387;DHT22;63966;47.914;22.266;2022-12-07T10:27:40;5.23;85.44
75387;DHT22;63966;47.914;22.266;2022-12-07T10:34:01;5.63;84.14
75387;DHT22;63966;47.914;22.266;2022-12-07T10:40:32;5.34;84.50
75387;DHT22;63966;47.914;22.266;2022-12-07T10:43:36;5.23;84.46
75387;DHT22;63966;47.914;22.266;2022-12-07T11:00:43;5.23;85.08
75387;DHT22;63966;47.914;22.266;2022-12-07T11:07:12;5.51;84.69
75387;DHT22;63966;47.914;22.266;2022-12-07T11:17:05;5.81;83.26
75387;DHT22;63966;47.914;22.266;2022-12-07T11:30:18;6.20;82.22
75387;DHT22;63966;47.914;22.266;2022-12-07T11:36:57;6.38;82.07
75387;DHT22;63966;47.914;22.266;2022-12-07T11:43:42;6.52;81.97
75387;DHT22;63966;47.914;22.266;2022-12-07T11:46:54;6.45;81.43
75387;DHT22;63966;47.914;22.266;2022-12-07T11:53:35;6.30;81.99
75387;DHT22;63966;47.914;22.266;2022-12-07T11:56:40;6.36;82.12
75387;DHT22;63966;47.914;22.266;2022-12-07T11:59:53;6.48;81.44
75387;DHT22;63966;47.914;22.266;2022-12-07T12:03:04;6.48;81.79
75387;DHT22;63966;47.914;22.266;2022-12-07T12:06:13;6.58;81.79
75387;DHT22;63966;47.914;22.266;2022-12-07T12:09:30;6.55;81.49
75387;DHT22;63966;47.914;22.266;2022-12-07T12:20:27;6.44;82.21
75387;DHT22;63966;47.914;22.266;2022-12-07T12:26:37;6.37;81.39
75387;DHT22;63966;47.914;22.266;2022-12-07T12:29:41;6.34;81.72
75387;DHT22;63966;47.914;22.266;2022-12-07T12:32:46;6.33;80.83
75387;DHT22;63966;47.914;22.266;2022-12-07T12:39:36;6.36;81.19
75387;DHT22;63966;47.914;22.266;2022-12-07T12:42:49;6.09;82.07
75387;DHT22;63966;47.914;22.266;2022-12-07T12:49:36;6.11;81.77
75387;DHT22;63966;47.914;22.266;2022-12-07T13:02:56;6.23;81.02
75387;DHT22;63966;47.914;22.266;2022-12-07T13:06:34;6.17;81.38
75387;DHT22;63966;47.914;22.266;2022-12-07T13:09:43;6.29;81.31
75387;DHT22;63966;47.914;22.266;2022-12-07T13:19:54;6.23;81.70
75387;DHT22;63966;47.914;22.266;2022-12-07T13:22:59;6.21;82.09
75387;DHT22;63966;47.914;22.266;2022-12-07T13:29:37;6.14;82.14
75387;DHT22;63966;47.914;22.266;2022-12-07T13:32:41;6.06;82.02
75387;DHT22;63966;47.914;22.266;2022-12-07T13:35:45;6.05;82.26
75387;DHT22;63966;47.914;22.266;2022-12-07T13:38:56;6.14;81.87
75387;DHT22;63966;47.914;22.266;2022-12-07T13:42:06;6.21;81.86
75387;DHT22;63966;47.914;22.266;2022-12-07T13:45:30;6.21;82.06
75387;DHT22;63966;47.914;22.266;2022-12-07T13:48:52;6.10;82.30
75387;DHT22;63966;47.914;22.266;2022-12-07T13:55:17;5.98;82.48
75387;DHT22;63966;47.914;22.266;2022-12-07T13:58:22;6.09;82.16
75387;DHT22;63966;47.914;22.266;2022-12-07T14:01:28;5.95;82.58
75387;DHT22;63966;47.914;22.266;2022-12-07T14:04:35;5.89;83.03
75387;DHT22;63966;47.914;22.266;2022-12-07T14:08:02;5.73;82.71
75387;DHT22;63966;47.914;22.266;2022-12-07T14:11:07;5.71;82.94
75387;DHT22;63966;47.914;22.266;2022-12-07T14:14:28;5.50;83.65
75387;DHT22;63966;47.914;22.266;2022-12-07T14:17:50;5.41;83.90
75387;DHT22;63966;47.914;22.266;2022-12-07T14:21:13;5.34;84.27
75387;DHT22;63966;47.914;22.266;2022-12-07T14:24:20;5.26;84.33
75387;DHT22;63966;47.914;22.266;2022-12-07T14:27:29;5.10;84.71
75387;DHT22;63966;47.914;22.266;2022-12-07T14:30:34;4.94;85.01
75387;DHT22;63966;47.914;22.266;2022-12-07T14:33:39;4.82;85.59
75387;DHT22;63966;47.914;22.266;2022-12-07T14:36:42;4.69;86.02
75387;DHT22;63966;47.914;22.266;2022-12-07T14:39:46;4.61;86.32
75387;DHT22;63966;47.914;22.266;2022-12-07T14:43:02;4.51;86.64
75387;DHT22;63966;47.914;22.266;2022-12-07T14:46:06;4.41;86.84
75387;DHT22;63966;47.914;22.266;2022-12-07T14:49:10;4.37;86.91
75387;DHT22;63966;47.914;22.266;2022-12-07T14:52:33;4.33;87.13
75387;DHT22;63966;47.914;22.266;2022-12-07T14:55:57;4.22;87.39
75387;DHT22;63966;47.914;22.266;2022-12-07T14:59:01;4.10;87.78
75387;DHT22;63966;47.914;22.266;2022-12-07T15:02:06;3.97;88.06
75387;DHT22;63966;47.914;22.266;2022-12-07T15:05:10;3.77;88.67
75387;DHT22;63966;47.914;22.266;2022-12-07T15:08:18;3.62;89.10
75387;DHT22;63966;47.914;22.266;2022-12-07T15:11:22;3.38;89.35
75387;DHT22;63966;47.914;22.266;2022-12-07T15:14:25;3.41;89.86
75387;DHT22;63966;47.914;22.266;2022-12-07T15:17:29;3.55;89.91
75387;DHT22;63966;47.914;22.266;2022-12-07T15:20:34;3.54;89.78
75387;DHT22;63966;47.914;22.266;2022-12-07T15:23:38;3.42;90.02
75387;DHT22;63966;47.914;22.266;2022-12-07T15:26:41;3.28;90.27
75387;DHT22;63966;47.914;22.266;2022-12-07T15:29:45;3.14;90.44
75387;DHT22;63966;47.914;22.266;2022-12-07T15:32:52;2.93;90.57
75387;DHT22;63966;47.914;22.266;2022-12-07T15:35:55;2.82;91.07
75387;DHT22;63966;47.914;22.266;2022-12-07T15:38:59;2.75;91.52
75387;DHT22;63966;47.914;22.266;2022-12-07T15:42:21;2.66;91.69
75387;DHT22;63966;47.914;22.266;2022-12-07T15:45:24;2.46;92.07
75387;DHT22;63966;47.914;22.266;2022-12-07T15:48:28;2.39;92.48
75387;DHT22;63966;47.914;22.266;2022-12-07T15:51:32;2.28;92.67
75387;DHT22;63966;47.914;22.266;2022-12-07T15:54:35;2.22;92.70
75387;DHT22;63966;47.914;22.266;2022-12-07T15:57:40;2.10;92.36
75387;DHT22;63966;47.914;22.266;2022-12-07T16:00:43;2.04;92.67
75387;DHT22;63966;47.914;22.266;2022-12-07T16:03:48;2.00;93.16
75387;DHT22;63966;47.914;22.266;2022-12-07T16:06:51;1.98;93.31
75387;DHT22;63966;47.914;22.266;2022-12-07T16:09:54;1.98;93.57
75387;DHT22;63966;47.914;22.266;2022-12-07T16:12:58;2.04;93.80
75387;DHT22;63966;47.914;22.266;2022-12-07T16:16:06;2.10;93.91
75387;DHT22;63966;47.914;22.266;2022-12-07T16:19:10;2.22;93.96
75387;DHT22;63966;47.914;22.266;2022-12-07T16:22:14;2.22;93.71
75387;DHT22;63966;47.914;22.266;2022-12-07T16:25:17;2.18;93.56
75387;DHT22;63966;47.914;22.266;2022-12-07T16:28:21;2.15;93.68
75387;DHT22;63966;47.914;22.266;2022-12-07T16:31:27;2.13;93.73
75387;DHT22;63966;47.914;22.266;2022-12-07T16:34:31;2.04;94.03
75387;DHT22;63966;47.914;22.266;2022-12-07T16:37:35;2.00;94.10
75387;DHT22;63966;47.914;22.266;2022-12-07T16:40:38;1.94;94.12
75387;DHT22;63966;47.914;22.266;2022-12-07T16:43:42;1.93;94.39
75387;DHT22;63966;47.914;22.266;2022-12-07T16:46:45;1.88;94.53
75387;DHT22;63966;47.914;22.266;2022-12-07T16:49:49;1.83;94.60
75387;DHT22;63966;47.914;22.266;2022-12-07T16:52:52;1.78;94.70
75387;DHT22;63966;47.914;22.266;2022-12-07T16:55:56;1.78;94.77
75387;DHT22;63966;47.914;22.266;2022-12-07T16:58:59;1.80;94.84
75387;DHT22;63966;47.914;22.266;2022-12-07T17:02:03;1.77;94.84
75387;DHT22;63966;47.914;22.266;2022-12-07T17:05:07;1.77;94.86
75387;DHT22;63966;47.914;22.266;2022-12-07T17:08:12;1.83;94.90
75387;DHT22;63966;47.914;22.266;2022-12-07T17:11:21;1.90;94.94
75387;DHT22;63966;47.914;22.266;2022-12-07T17:14:25;2.01;94.83
75387;DHT22;63966;47.914;22.266;2022-12-07T17:17:53;2.13;94.62
75387;DHT22;63966;47.914;22.266;2022-12-07T17:21:06;2.28;94.49
75387;DHT22;63966;47.914;22.266;2022-12-07T17:24:12;2.34;94.12
75387;DHT22;63966;47.914;22.266;2022-12-07T17:27:16;2.45;94.09
75387;DHT22;63966;47.914;22.266;2022-12-07T17:30:20;2.53;94.05
75387;DHT22;63966;47.914;22.266;2022-12-07T17:33:23;2.60;94.00
75387;DHT22;63966;47.914;22.266;2022-12-07T17:36:28;2.59;93.68
75387;DHT22;63966;47.914;22.266;2022-12-07T17:39:32;2.56;93.69
75387;DHT22;63966;47.914;22.266;2022-12-07T17:42:36;2.60;93.56
75387;DHT22;63966;47.914;22.266;2022-12-07T17:45:40;2.64;93.54
75387;DHT22;63966;47.914;22.266;2022-12-07T17:48:44;2.63;93.44
75387;DHT22;63966;47.914;22.266;2022-12-07T17:51:47;2.56;93.33
75387;DHT22;63966;47.914;22.266;2022-12-07T17:55:09;2.46;93.20
75387;DHT22;63966;47.914;22.266;2022-12-07T17:58:13;2.36;93.50
75387;DHT22;63966;47.914;22.266;2022-12-07T18:01:17;2.24;94.00
75387;DHT22;63966;47.914;22.266;2022-12-07T18:04:26;2.18;94.15
75387;DHT22;63966;47.914;22.266;2022-12-07T18:07:29;2.10;94.31
75387;DHT22;63966;47.914;22.266;2022-12-07T18:10:33;2.05;94.59
75387;DHT22;63966;47.914;22.266;2022-12-07T18:13:36;2.01;94.55
75387;DHT22;63966;47.914;22.266;2022-12-07T18:16:40;1.97;94.77
75387;DHT22;63966;47.914;22.266;2022-12-07T18:19:44;1.91;94.85
75387;DHT22;63966;47.914;22.266;2022-12-07T18:22:47;1.93;94.81
75387;DHT22;63966;47.914;22.266;2022-12-07T18:25:52;1.87;94.83
75387;DHT22;63966;47.914;22.266;2022-12-07T18:28:58;1.83;95.03
75387;DHT22;63966;47.914;22.266;2022-12-07T18:32:02;1.84;94.90
75387;DHT22;63966;47.914;22.266;2022-12-07T18:35:07;1.78;94.92
75387;DHT22;63966;47.914;22.266;2022-12-07T18:38:12;1.83;95.19
75387;DHT22;63966;47.914;22.266;2022-12-07T18:41:16;1.81;95.03
75387;DHT22;63966;47.914;22.266;2022-12-07T18:44:20;1.81;94.94
75387;DHT22;63966;47.914;22.266;2022-12-07T18:47:23;1.77;94.85
75387;DHT22;63966;47.914;22.266;2022-12-07T18:50:27;1.73;94.91
75387;DHT22;63966;47.914;22.266;2022-12-07T18:53:32;1.74;94.88
75387;DHT22;63966;47.914;22.266;2022-12-07T18:56:36;1.73;94.92
75387;DHT22;63966;47.914;22.266;2022-12-07T18:59:41;1.63;94.92
75387;DHT22;63966;47.914;22.266;2022-12-07T19:02:52;1.57;95.02
75387;DHT22;63966;47.914;22.266;2022-12-07T19:05:57;1.52;95.09
75387;DHT22;63966;47.914;22.266;2022-12-07T19:09:01;1.49;95.20
75387;DHT22;63966;47.914;22.266;2022-12-07T19:12:05;1.50;95.40
75387;DHT22;63966;47.914;22.266;2022-12-07T19:15:12;1.53;95.69
75387;DHT22;63966;47.914;22.266;2022-12-07T19:18:15;1.56;95.48
75387;DHT22;63966;47.914;22.266;2022-12-07T19:21:19;1.49;95.34
75387;DHT22;63966;47.914;22.266;2022-12-07T19:24:22;1.52;95.47
75387;DHT22;63966;47.914;22.266;2022-12-07T19:27:26;1.46;95.45
75387;DHT22;63966;47.914;22.266;2022-12-07T19:30:30;1.42;95.58
75387;DHT22;63966;47.914;22.266;2022-12-07T19:33:34;1.29;95.46
75387;DHT22;63966;47.914;22.266;2022-12-07T19:36:38;1.22;95.59
75387;DHT22;63966;47.914;22.266;2022-12-07T19:39:43;1.15;95.56
75387;DHT22;63966;47.914;22.266;2022-12-07T19:42:50;1.17;95.64
75387;DHT22;63966;47.914;22.266;2022-12-07T19:45:54;1.12;95.71
75387;DHT22;63966;47.914;22.266;2022-12-07T19:48:59;1.07;95.80
75387;DHT22;63966;47.914;22.266;2022-12-07T19:52:06;1.01;95.90
75387;DHT22;63966;47.914;22.266;2022-12-07T19:55:10;0.98;95.91
75387;DHT22;63966;47.914;22.266;2022-12-07T19:58:14;0.95;95.89
75387;DHT22;63966;47.914;22.266;2022-12-07T20:01:17;0.94;95.94
75387;DHT22;63966;47.914;22.266;2022-12-07T20:04:24;0.92;96.10
75387;DHT22;63966;47.914;22.266;2022-12-07T20:07:28;0.84;96.05
75387;DHT22;63966;47.914;22.266;2022-12-07T20:10:37;0.83;96.02
75387;DHT22;63966;47.914;22.266;2022-12-07T20:13:40;0.80;96.04
75387;DHT22;63966;47.914;22.266;2022-12-07T20:16:44;0.73;96.14
75387;DHT22;63966;47.914;22.266;2022-12-07T20:19:48;0.70;96.23
75387;DHT22;63966;47.914;22.266;2022-12-07T20:22:51;0.64;96.19
75387;DHT22;63966;47.914;22.266;2022-12-07T20:25:59;0.63;96.44
75387;DHT22;63966;47.914;22.266;2022-12-07T20:29:11;0.60;96.38
75387;DHT22;63966;47.914;22.266;2022-12-07T20:32:20;0.53;96.35
75387;DHT22;63966;47.914;22.266;2022-12-07T20:35:24;0.49;96.36
75387;DHT22;63966;47.914;22.266;2022-12-07T20:38:28;0.53;96.39
75387;DHT22;63966;47.914;22.266;2022-12-07T20:41:33;0.49;96.40
75387;DHT22;63966;47.914;22.266;2022-12-07T20:44:55;0.45;96.45
75387;DHT22;63966;47.914;22.266;2022-12-07T20:48:05;0.39;96.46
75387;DHT22;63966;47.914;22.266;2022-12-07T20:51:09;0.29;96.41
75387;DHT22;63966;47.914;22.266;2022-12-07T20:54:13;0.28;96.40
75387;DHT22;63966;47.914;22.266;2022-12-07T20:57:17;0.32;96.74
75387;DHT22;63966;47.914;22.266;2022-12-07T21:00:20;0.32;96.72
75387;DHT22;63966;47.914;22.266;2022-12-07T21:03:24;0.23;96.61
75387;DHT22;63966;47.914;22.266;2022-12-07T21:06:28;0.22;96.69
75387;DHT22;63966;47.914;22.266;2022-12-07T21:09:32;0.26;96.91
75387;DHT22;63966;47.914;22.266;2022-12-07T21:12:36;0.23;96.75
75387;DHT22;63966;47.914;22.266;2022-12-07T21:15:39;0.19;96.72
75387;DHT22;63966;47.914;22.266;2022-12-07T21:18:43;0.18;96.78
75387;DHT22;63966;47.914;22.266;2022-12-07T21:21:51;0.18;96.74
75387;DHT22;63966;47.914;22.266;2022-12-07T21:24:54;0.18;96.78
75387;DHT22;63966;47.914;22.266;2022-12-07T21:27:58;0.16;96.81
75387;DHT22;63966;47.914;22.266;2022-12-07T21:31:01;0.19;96.79
75387;DHT22;63966;47.914;22.266;2022-12-07T21:34:19;0.12;96.74
75387;DHT22;63966;47.914;22.266;2022-12-07T21:37:22;0.02;96.53
75387;DHT22;63966;47.914;22.266;2022-12-07T21:40:25;-0.06;96.71
75387;DHT22;63966;47.914;22.266;2022-12-07T21:43:29;-0.09;96.72